Flight Track Log - Related Links

Times and Time Zones

All times are in EDT time to prevent confusion due to time zone crossing. See the N680AN flight status page for this flight to view local times or setup timezone preferences in your user account.

Time Position Orientation Groundspeed Altitude Reporting Facility
EDT Latitude Longitude Course Direction KTS MPH feet Rate Location/Type
Mon 12:14:26 PM 47.4344 -122.3075 159° South 166 191 1,300  Level Seattle Center
Mon 12:15:51 PM 47.3575 -122.3106 182° South 236 272 4,200 2,487 Climbing Seattle Center
Mon 12:16:58 PM 47.2731 -122.3111 180° South 280 322 7,600 2,776 Climbing Seattle Center
Mon 12:17:00 PM 47.2681 -121.8146 159° South  Level Estimated
Mon 12:18:00 PM 47.2070 -121.6497 161° South  Level Estimated
Mon 12:18:05 PM 47.1922 -122.2711 161° South 293 337 10,400  Level Seattle Center
Mon 12:19:00 PM 47.1457 -121.4851 159° South  Level Estimated
Mon 12:19:05 PM 47.1172 -122.1931 145° Southeast 350 403 11,800  Level Seattle Center
Mon 12:20:06 PM 47.0186 -122.1464 162° South 376 433 14,500 2,557 Climbing Seattle Center
Mon 12:21:07 PM 46.9122 -122.1053 165° South 400 460 17,000 2,213 Climbing Seattle Center
Mon 12:22:08 PM 46.8119 -122.0003 144° Southeast 454 522 19,000 1,967 Climbing Seattle Center
Mon 12:23:09 PM 46.7147 -121.8669 137° Southeast 479 551 21,000 1,820 Climbing Seattle Center
Mon 12:24:10 PM 46.6122 -121.7242 136° Southeast 505 581 22,700 1,574 Climbing Seattle Center
Mon 12:25:11 PM 46.5097 -121.5675 134° Southeast 530 610 24,200 1,574 Climbing Seattle Center
Mon 12:26:12 PM 46.4117 -121.3936 129° Southeast 554 638 25,900 1,869 Climbing Seattle Center
Mon 12:27:13 PM 46.2922 -121.1800 129° Southeast 569 655 28,000 1,820 Climbing Seattle Center
Mon 12:28:14 PM 46.2067 -120.9814 122° Southeast 583 671 29,600 1,574 Climbing Seattle Center
Mon 12:29:15 PM 46.1203 -120.7825 122° Southeast 586 674 31,200 1,967 Climbing Seattle Center
Mon 12:30:16 PM 46.0322 -120.5853 123° Southeast 585 673 33,600 1,835 Climbing Seattle Center
Mon 12:31:16 PM 45.9436 -120.3931 123° Southeast 579 666 34,900 1,289 Climbing Seattle Center
Mon 12:32:17 PM 45.8461 -120.2067 127° Southeast 582 670 36,200 1,033 Climbing Seattle Center
Mon 12:33:18 PM 45.7489 -120.0222 127° Southeast 580 667 37,000 492 Climbing Seattle Center
Mon 12:34:19 PM 45.6522 -119.8439 128° Southeast 570 656 37,200 787 Climbing Seattle Center
Mon 12:35:20 PM 45.5583 -119.6697 128° Southeast 557 641 38,600 885 Climbing Seattle Center
Mon 12:36:21 PM 45.4653 -119.4986 128° Southeast 548 631 39,000 197 Climbing Seattle Center
Mon 12:37:22 PM 45.3733 -119.3292 128° Southeast 541 623 39,000  Level Seattle Center
Mon 12:38:23 PM 45.2825 -119.1631 128° Southeast 533 613 39,000  Level Seattle Center
Mon 12:39:24 PM 45.1900 -118.9950 128° Southeast 535 616 39,000  Level Seattle Center
Mon 12:40:25 PM 45.0953 -118.8242 128° Southeast 546 628 39,000  Level Seattle Center
Mon 12:41:26 PM 45.0003 -118.6550 128° Southeast 548 631 39,000  Level Seattle Center
Mon 12:42:27 PM 44.9067 -118.4886 128° Southeast 544 626 39,000  Level Seattle Center
Mon 12:43:28 PM 44.8133 -118.3225 128° Southeast 541 623 39,000  Level Seattle Center
Mon 12:44:28 PM 44.7131 -118.1458 129° Southeast 540 621 39,000  Level Seattle Center
Mon 12:45:29 PM 44.6081 -117.9642 129° Southeast 537 618 39,000  Level Seattle Center
Mon 12:46:30 PM 44.5200 -117.8100 129° Southeast 533 613 39,000  Level Seattle Center
Mon 12:47:31 PM 44.4147 -117.6306 129° Southeast 534 615 39,000  Level Seattle Center
Mon 12:48:41 PM 44.3075 -117.4500 130° Southeast 542 624 39,000  Level Salt Lake Center
Mon 12:49:43 PM 44.2186 -117.2994 129° Southeast 531 611 39,000  Level Salt Lake Center
Mon 12:50:45 PM 44.1156 -117.1242 129° Southeast 527 606 39,000  Level Salt Lake Center
Mon 12:51:46 PM 44.0244 -116.9733 130° Southeast 529 609 39,000  Level Salt Lake Center
Mon 12:52:48 PM 43.9194 -116.7986 130° Southeast 531 611 39,000  Level Salt Lake Center
Mon 12:53:49 PM 43.8294 -116.6481 130° Southeast 533 613 39,000  Level Salt Lake Center
Mon 12:54:51 PM 43.7247 -116.4736 130° Southeast 529 609 39,000  Level Salt Lake Center
Mon 12:55:52 PM 43.6333 -116.3236 130° Southeast 535 616 39,000  Level Salt Lake Center
Mon 12:56:54 PM 43.5425 -116.1744 130° Southeast 534 615 39,000  Level Salt Lake Center
Mon 12:57:56 PM 43.4361 -116.0014 130° Southeast 532 612 39,000  Level Salt Lake Center
Mon 12:58:57 PM 43.3461 -115.8525 130° Southeast 530 610 39,000  Level Salt Lake Center
Mon 12:59:59 PM 43.2403 -115.6797 130° Southeast 531 611 39,000  Level Salt Lake Center
Mon 01:01:00 PM 43.1500 -115.5347 130° Southeast 524 603 39,000  Level Salt Lake Center
Mon 01:02:02 PM 43.0444 -115.3647 130° Southeast 526 605 39,000  Level Salt Lake Center
Mon 01:03:03 PM 42.9536 -115.2217 131° Southeast 521 600 39,000  Level Salt Lake Center
Mon 01:04:05 PM 42.8636 -115.0803 131° Southeast 516 594 39,000  Level Salt Lake Center
Mon 01:05:06 PM 42.7589 -114.9144 131° Southeast 516 594 39,000  Level Salt Lake Center
Mon 01:06:08 PM 42.6689 -114.7731 131° Southeast 514 592 39,000  Level Salt Lake Center
Mon 01:07:09 PM 42.5786 -114.6319 131° Southeast 514 592 39,000  Level Salt Lake Center
Mon 01:08:11 PM 42.4661 -114.4589 131° Southeast 512 589 39,000  Level Salt Lake Center
Mon 01:09:12 PM 42.3750 -114.3122 130° Southeast 510 587 39,000  Level Salt Lake Center
Mon 01:10:14 PM 42.2842 -114.1678 130° Southeast 507 583 39,000  Level Salt Lake Center
Mon 01:11:16 PM 42.1933 -114.0228 130° Southeast 506 582 39,000  Level Salt Lake Center
Mon 01:12:17 PM 42.1022 -113.8792 131° Southeast 507 583 39,000  Level Salt Lake Center
Mon 01:13:19 PM 42.0103 -113.7361 131° Southeast 506 582 39,000  Level Salt Lake Center
Mon 01:14:20 PM 41.9189 -113.5931 131° Southeast 505 581 39,000  Level Salt Lake Center
Mon 01:15:22 PM 41.8283 -113.4514 131° Southeast 502 578 39,000  Level Salt Lake Center
Mon 01:16:23 PM 41.7183 -113.2808 131° Southeast 506 582 39,000  Level Salt Lake Center
Mon 01:17:25 PM 41.6261 -113.1403 131° Southeast 505 581 39,000  Level Salt Lake Center
Mon 01:18:26 PM 41.5336 -112.9992 131° Southeast 507 583 39,000  Level Salt Lake Center
Mon 01:19:28 PM 41.4417 -112.8575 131° Southeast 507 583 39,000 145 Level Salt Lake Center
Mon 01:20:30 PM 41.3494 -112.7175 131° Southeast 505 581 39,300 488 Climbing Salt Lake Center
Mon 01:21:31 PM 41.2564 -112.5789 132° Southeast 505 581 40,000 634 Climbing Salt Lake Center
Mon 01:22:33 PM 41.1636 -112.4406 132° Southeast 506 582 40,600 488 Climbing Salt Lake Center
Mon 01:23:34 PM 41.0517 -112.2744 132° Southeast 508 585 41,000 195 Climbing Salt Lake Center
Mon 01:24:36 PM 40.9594 -112.1381 132° Southeast 506 582 41,000  Level Salt Lake Center
Mon 01:25:38 PM 40.8686 -112.0058 132° Southeast 496 571 41,000  Level Salt Lake Center
Mon 01:26:39 PM 40.7911 -111.8669 126° Southeast 483 556 41,000  Level Salt Lake Center
Mon 01:27:41 PM 40.7161 -111.7250 125° Southeast 481 554 41,000 -244 Level Salt Lake Center
Mon 01:28:42 PM 40.6219 -111.5511 125° Southeast 492 566 40,500 -829 Descending Salt Lake Center
Mon 01:29:44 PM 40.5436 -111.4053 125° Southeast 491 565 39,300 -726 Descending Salt Lake Center
Mon 01:30:46 PM 40.4653 -111.2614 126° Southeast 488 562 39,000 -146 Descending Salt Lake Center
Mon 01:31:47 PM 40.3872 -111.1203 126° Southeast 482 555 39,000  Level Salt Lake Center
Mon 01:32:49 PM 40.3083 -110.9781 126° Southeast 484 557 39,000  Level Salt Lake Center
Mon 01:33:51 PM 40.2161 -110.8136 126° Southeast 484 557 39,000  Level Salt Lake Center
Mon 01:34:53 PM 40.1408 -110.6783 126° Southeast 483 556 39,000  Level Salt Lake Center
Mon 01:35:54 PM 40.0653 -110.5428 126° Southeast 482 555 39,000  Level Salt Lake Center
Mon 01:36:56 PM 39.9767 -110.3847 126° Southeast 483 556 39,000  Level Salt Lake Center
Mon 01:37:58 PM 39.9003 -110.2497 126° Southeast 483 556 39,000  Level Salt Lake Center
Mon 01:39:00 PM 39.8119 -110.0914 126° Southeast 486 559 39,000  Level Salt Lake Center
Mon 01:40:01 PM 39.7344 -109.9553 126° Southeast 488 562 39,000  Level Salt Lake Center
Mon 01:41:03 PM 39.6447 -109.7958 126° Southeast 489 563 39,000  Level Salt Lake Center
Mon 01:41:25 PM 39.6172 -109.7492 127° Southeast 490 564 39,000  Level Denver Center
Mon 01:42:27 PM 39.5392 -109.6156 127° Southeast 489 563 39,000  Level Denver Center
Mon 01:43:07 PM 39.4761 -109.5047 126° Southeast 489 563 39,000  Level Salt Lake Center
Mon 01:44:08 PM 39.4042 -109.3644 124° Southeast 489 563 39,000  Level Salt Lake Center
Mon 01:44:31 PM 39.3800 -109.3142 122° Southeast 491 565 39,000  Level Denver Center
Mon 01:45:10 PM 39.3361 -109.2233 122° Southeast 487 560 39,000  Level Salt Lake Center
Mon 01:45:33 PM 39.3006 -109.1517 123° Southeast 483 556 39,000 -282 Level Denver Center
Mon 01:46:35 PM 39.2331 -109.0128 122° Southeast 480 552 38,600 -919 Descending Denver Center
Mon 01:47:37 PM 39.1528 -108.8503 122° Southeast 484 557 37,100 -774 Descending Denver Center
Mon 01:48:39 PM 39.0858 -108.7169 123° Southeast 467 537 37,000 -48 Descending Denver Center
Mon 01:49:41 PM 39.0092 -108.5611 122° Southeast 463 533 37,000  Level Denver Center
Mon 01:50:43 PM 38.9417 -108.4228 122° Southeast 476 548 37,000  Level Denver Center
Mon 01:51:45 PM 38.8614 -108.2611 122° Southeast 482 555 37,000  Level Denver Center
Mon 01:52:47 PM 38.7933 -108.1217 122° Southeast 483 556 37,000  Level Denver Center
Mon 01:53:49 PM 38.7125 -107.9603 123° Southeast 482 555 37,000  Level Denver Center
Mon 01:54:51 PM 38.6431 -107.8231 123° Southeast 481 554 37,000  Level Denver Center
Mon 01:55:53 PM 38.5625 -107.6631 123° Southeast 479 551 37,000  Level Denver Center
Mon 01:56:55 PM 38.4944 -107.5283 123° Southeast 472 543 37,000  Level Denver Center
Mon 01:57:57 PM 38.4156 -107.3753 123° Southeast 464 534 37,000  Level Denver Center
Mon 01:58:59 PM 38.3483 -107.2453 123° Southeast 461 531 37,000  Level Denver Center
Mon 02:00:01 PM 38.2764 -107.1058 123° Southeast 458 527 37,000  Level Denver Center
Mon 02:01:03 PM 38.2058 -106.9733 124° Southeast 451 519 37,000  Level Denver Center
Mon 02:02:06 PM 38.1256 -106.8183 123° Southeast 451 519 37,000  Level Denver Center
Mon 02:03:20 PM 38.0469 -106.6711 124° Southeast 450 518 37,000  Level Denver Center
Mon 02:04:22 PM 37.9686 -106.5239 124° Southeast 453 521 37,000  Level Denver Center
Mon 02:05:24 PM 37.8956 -106.3869 124° Southeast 451 519 37,000  Level Denver Center
Mon 02:06:26 PM 37.8294 -106.2600 123° Southeast 453 521 37,000  Level Denver Center
Mon 02:07:28 PM 37.7489 -106.1114 124° Southeast 459 528 37,000  Level Denver Center
Mon 02:08:30 PM 37.6789 -105.9828 124° Southeast 463 533 37,000  Level Denver Center
Mon 02:09:32 PM 37.5975 -105.8311 124° Southeast 468 539 37,000  Level Denver Center
Mon 02:10:34 PM 37.5275 -105.7019 124° Southeast 469 540 37,000  Level Denver Center
Mon 02:11:36 PM 37.4436 -105.5467 124° Southeast 476 548 37,000  Level Denver Center
Mon 02:12:38 PM 37.3750 -105.4167 124° Southeast 469 540 37,000  Level Denver Center
Mon 02:13:40 PM 37.3036 -105.2853 124° Southeast 473 544 37,000  Level Denver Center
Mon 02:14:42 PM 37.2222 -105.1322 124° Southeast 474 545 37,000  Level Denver Center
Mon 02:15:44 PM 37.1500 -105.0008 125° Southeast 477 549 37,000  Level Denver Center
Mon 02:16:46 PM 37.0669 -104.8489 124° Southeast 476 548 37,000  Level Denver Center
Mon 02:17:48 PM 36.9958 -104.7211 125° Southeast 472 543 37,000  Level Denver Center
Mon 02:18:50 PM 36.9117 -104.5708 125° Southeast 473 544 37,000  Level Denver Center
Mon 02:19:52 PM 36.8397 -104.4425 125° Southeast 473 544 37,000  Level Denver Center
Mon 02:20:19 PM 36.8033 -104.3772 125° Southeast 472 543 37,000  Level Albuquerque Center
Mon 02:21:21 PM 36.7200 -104.2281 125° Southeast 471 542 37,000  Level Albuquerque Center
Mon 02:22:23 PM 36.6408 -104.0911 126° Southeast 473 544 37,000  Level Albuquerque Center
Mon 02:23:25 PM 36.5633 -103.9569 126° Southeast 473 544 37,000  Level Albuquerque Center
Mon 02:24:27 PM 36.4861 -103.8206 125° Southeast 475 547 37,000  Level Albuquerque Center
Mon 02:25:28 PM 36.4092 -103.6853 125° Southeast 476 548 37,000  Level Albuquerque Center
Mon 02:26:30 PM 36.3331 -103.5492 125° Southeast 475 547 37,000  Level Albuquerque Center
Mon 02:27:32 PM 36.2550 -103.4150 126° Southeast 475 547 37,000  Level Albuquerque Center
Mon 02:28:34 PM 36.1781 -103.2800 125° Southeast 474 545 37,000  Level Albuquerque Center
Mon 02:29:36 PM 36.1003 -103.1472 126° Southeast 473 544 37,000  Level Albuquerque Center
Mon 02:30:38 PM 36.0108 -102.9925 126° Southeast 470 541 37,000  Level Albuquerque Center
Mon 02:31:39 PM 35.9364 -102.8669 126° Southeast 470 541 37,000  Level Albuquerque Center
Mon 02:32:41 PM 35.8603 -102.7364 126° Southeast 470 541 37,000  Level Albuquerque Center
Mon 02:33:43 PM 35.7836 -102.6061 126° Southeast 470 541 37,000  Level Albuquerque Center
Mon 02:34:45 PM 35.7061 -102.4767 126° Southeast 470 541 37,000  Level Albuquerque Center
Mon 02:35:47 PM 35.6292 -102.3478 126° Southeast 469 540 37,000  Level Albuquerque Center
Mon 02:36:49 PM 35.5361 -102.1922 126° Southeast 470 541 37,000  Level Albuquerque Center
Mon 02:37:50 PM 35.4583 -102.0644 127° Southeast 470 541 37,000  Level Albuquerque Center
Mon 02:38:52 PM 35.3864 -101.9444 126° Southeast 469 540 37,000  Level Albuquerque Center
Mon 02:39:54 PM 35.2967 -101.7931 126° Southeast 466 536 37,000  Level Albuquerque Center
Mon 02:40:56 PM 35.2286 -101.6558 121° Southeast 468 539 37,000  Level Albuquerque Center
Mon 02:41:58 PM 35.1778 -101.5117 113° Southeast 464 534 37,000  Level Albuquerque Center
Mon 02:42:59 PM 35.1189 -101.3714 117° Southeast 464 534 37,000  Level Albuquerque Center
Mon 02:44:01 PM 35.0597 -101.2331 118° Southeast 468 539 37,000  Level Albuquerque Center
Mon 02:45:03 PM 34.9997 -101.0931 118° Southeast 467 537 37,000  Level Albuquerque Center
Mon 02:46:05 PM 34.9403 -100.9544 118° Southeast 464 534 37,000  Level Albuquerque Center
Mon 02:47:07 PM 34.8706 -100.7883 117° Southeast 462 532 37,000  Level Albuquerque Center
Mon 02:48:09 PM 34.8108 -100.6514 118° Southeast 460 529 37,000  Level Albuquerque Center
Mon 02:49:10 PM 34.7517 -100.5142 118° Southeast 460 529 37,000  Level Albuquerque Center
Mon 02:50:12 PM 34.6917 -100.3722 117° Southeast 459 528 37,000  Level Albuquerque Center
Mon 02:51:14 PM 34.6314 -100.2361 118° Southeast 458 527 37,000  Level Albuquerque Center
Mon 02:52:16 PM 34.5750 -100.1042 117° Southeast 457 526 37,000  Level Albuquerque Center
Mon 02:52:42 PM 34.5403 -100.0253 118° Southeast 454 522 37,000  Level Fort Worth Center
Mon 02:53:42 PM 34.4828 -99.8875 117° Southeast 454 522 37,000  Level Fort Worth Center
Mon 02:54:42 PM 34.4325 -99.7803 120° Southeast 454 522 37,000  Level Fort Worth Center
Mon 02:55:42 PM 34.3664 -99.6300 118° Southeast 454 522 37,000 -150 Level Fort Worth Center
Mon 02:56:42 PM 34.3083 -99.4978 118° Southeast 459 528 36,700 -900 Descending Fort Worth Center
Mon 02:57:42 PM 34.2478 -99.3658 119° Southeast 459 528 35,200 -1,600 Descending Fort Worth Center
Mon 02:58:42 PM 34.1872 -99.2261 118° Southeast 459 528 33,500 -1,650 Descending Fort Worth Center
Mon 02:59:42 PM 34.1244 -99.0969 120° Southeast 464 534 31,900 -1,850 Descending Fort Worth Center
Mon 03:00:42 PM 34.0656 -98.9631 118° Southeast 458 527 29,800 -2,100 Descending Fort Worth Center
Mon 03:01:42 PM 34.0044 -98.8317 119° Southeast 458 527 27,700 -2,050 Descending Fort Worth Center
Mon 03:02:42 PM 33.9475 -98.7081 119° Southeast 438 504 25,700 -1,850 Descending Fort Worth Center
Mon 03:03:42 PM 33.8903 -98.5869 120° Southeast 421 484 24,000 -1,000 Descending Fort Worth Center
Mon 03:04:42 PM 33.8328 -98.4661 120° Southeast 416 479 23,700 -1,000 Descending Fort Worth Center
Mon 03:05:42 PM 33.7711 -98.3531 123° Southeast 416 479 22,000 -1,700 Descending Fort Worth Center
Mon 03:06:42 PM 33.7114 -98.2450 124° Southeast 402 463 20,300 -1,650 Descending Fort Worth Center
Mon 03:07:42 PM 33.6578 -98.1422 122° Southeast 390 449 18,700 -1,700 Descending Fort Worth Center
Mon 03:08:42 PM 33.5978 -98.0344 124° Southeast 385 443 16,900 -1,750 Descending Fort Worth Center
Mon 03:09:42 PM 33.5358 -97.9219 123° Southeast 372 428 15,200 -1,550 Descending Fort Worth Center
Mon 03:10:42 PM 33.4881 -97.8319 122° Southeast 364 419 13,800 -1,450 Descending Fort Worth Center
Mon 03:11:42 PM 33.4300 -97.7269 124° Southeast 352 405 12,300 -1,150 Descending Fort Worth Center
Mon 03:12:42 PM 33.3781 -97.6572 132° Southeast 326 375 11,500 -650 Descending Fort Worth Center
Mon 03:13:42 PM 33.3197 -97.5825 133° Southeast 301 346 11,000 -750 Descending Fort Worth Center
Mon 03:14:42 PM 33.2675 -97.5103 131° Southeast 284 327 10,000 -1,200 Descending Fort Worth Center
Mon 03:15:42 PM 33.2133 -97.4408 133° Southeast 284 327 8,600 -1,500 Descending Fort Worth Center
Mon 03:16:42 PM 33.1631 -97.3761 133° Southeast 277 319 7,000 -1,650 Descending Fort Worth Center
Mon 03:17:42 PM 33.1150 -97.3142 133° Southeast 266 306 5,300 -1,500 Descending Fort Worth Center
Mon 03:18:42 PM 33.0733 -97.2572 131° Southeast 261 300 4,000 -950 Descending Fort Worth Center
Mon 03:19:42 PM 33.0189 -97.2003 139° Southeast 244 281 3,400 -800 Descending Fort Worth Center
Mon 03:20:42 PM 32.9833 -97.1633 139° Southeast 215 247 2,400 -887 Descending Fort Worth Center
Mon 03:21:37 PM 32.9500 -97.1167 130° Southeast 130 150 1,700 -694 Descending Dallas / Fort Worth TRACON
Mon 03:22:43 PM 32.9167 -97.1000 157° South 126 145 1,000 -636 Descending Dallas / Fort Worth TRACON

Login

Don't have an account? Register now (free) for customized features, flight alerts, and more!